sensor_id;sensor_type;location;lat;lon;timestamp;noise_LAeq;noise_LA_min;noise_LA_max;noise_LA01;noise_LA95
71020;Laerm;58902;51.436;5.980;2023-01-19T00:00:05;35.39;33.48;37.98;;
71020;Laerm;58902;51.436;5.980;2023-01-19T00:00:15;42.41;34.39;54.93;;
71020;Laerm;58902;51.436;5.980;2023-01-19T00:00:27;35.98;34.26;37.42;;
71020;Laerm;58902;51.436;5.980;2023-01-19T00:00:37;35.82;33.84;37.27;;
71020;Laerm;58902;51.436;5.980;2023-01-19T00:00:48;35.30;33.51;36.68;;
71020;Laerm;58902;51.436;5.980;2023-01-19T00:00:58;35.89;33.64;39.25;;
71020;Laerm;58902;51.436;5.980;2023-01-19T00:01:09;35.66;33.67;39.90;;
71020;Laerm;58902;51.436;5.980;2023-01-19T00:01:19;35.59;33.26;40.27;;
71020;Laerm;58902;51.436;5.980;2023-01-19T00:01:29;35.40;33.65;37.15;;
71020;Laerm;58902;51.436;5.980;2023-01-19T00:01:40;35.55;33.33;38.62;;
71020;Laerm;58902;51.436;5.980;2023-01-19T00:01:50;36.20;34.09;42.46;;
71020;Laerm;58902;51.436;5.980;2023-01-19T00:02:01;35.62;33.73;40.27;;
71020;Laerm;58902;51.436;5.980;2023-01-19T00:02:11;36.69;34.10;39.62;;
71020;Laerm;58902;51.436;5.980;2023-01-19T00:02:22;36.49;33.62;44.97;;
71020;Laerm;58902;51.436;5.980;2023-01-19T00:02:32;35.14;33.16;37.65;;
71020;Laerm;58902;51.436;5.980;2023-01-19T00:02:42;35.40;33.80;38.80;;
71020;Laerm;58902;51.436;5.980;2023-01-19T00:02:56;35.80;33.88;37.84;;
71020;Laerm;58902;51.436;5.980;2023-01-19T00:03:06;34.83;32.47;38.80;;
71020;Laerm;58902;51.436;5.980;2023-01-19T00:03:24;34.14;32.09;39.41;;
71020;Laerm;58902;51.436;5.980;2023-01-19T00:03:35;34.64;32.44;36.35;;
71020;Laerm;58902;51.436;5.980;2023-01-19T00:03:46;35.18;33.57;36.64;;
71020;Laerm;58902;51.436;5.980;2023-01-19T00:03:56;35.31;33.75;36.93;;
71020;Laerm;58902;51.436;5.980;2023-01-19T00:04:07;35.08;33.33;37.70;;
71020;Laerm;58902;51.436;5.980;2023-01-19T00:04:17;33.56;32.02;35.22;;
71020;Laerm;58902;51.436;5.980;2023-01-19T00:04:27;33.95;32.50;35.61;;
71020;Laerm;58902;51.436;5.980;2023-01-19T00:04:38;33.76;31.72;35.76;;
71020;Laerm;58902;51.436;5.980;2023-01-19T00:04:48;34.69;32.35;36.35;;
71020;Laerm;58902;51.436;5.980;2023-01-19T00:04:59;42.60;32.48;50.39;;
71020;Laerm;58902;51.436;5.980;2023-01-19T00:05:10;44.92;37.64;50.97;;
71020;Laerm;58902;51.436;5.980;2023-01-19T00:05:20;41.09;37.78;43.90;;
71020;Laerm;58902;51.436;5.980;2023-01-19T00:05:31;73.35;41.54;80.82;;
71020;Laerm;58902;51.436;5.980;2023-01-19T00:05:43;62.56;39.43;76.66;;
71020;Laerm;58902;51.436;5.980;2023-01-19T00:05:53;39.78;33.62;48.48;;
71020;Laerm;58902;51.436;5.980;2023-01-19T00:06:07;34.56;32.95;35.91;;
71020;Laerm;58902;51.436;5.980;2023-01-19T00:06:17;34.06;32.17;35.61;;
71020;Laerm;58902;51.436;5.980;2023-01-19T00:06:28;34.28;32.61;37.06;;
71020;Laerm;58902;51.436;5.980;2023-01-19T00:06:38;34.17;32.17;36.37;;
71020;Laerm;58902;51.436;5.980;2023-01-19T00:06:48;34.44;32.30;39.74;;
71020;Laerm;58902;51.436;5.980;2023-01-19T00:06:59;34.01;32.67;35.42;;
71020;Laerm;58902;51.436;5.980;2023-01-19T00:07:12;34.17;32.27;35.49;;
71020;Laerm;58902;51.436;5.980;2023-01-19T00:07:22;33.59;31.63;34.93;;
71020;Laerm;58902;51.436;5.980;2023-01-19T00:07:32;33.28;31.80;34.66;;
71020;Laerm;58902;51.436;5.980;2023-01-19T00:07:43;33.12;31.55;34.80;;
71020;Laerm;58902;51.436;5.980;2023-01-19T00:07:53;33.79;32.18;35.12;;
71020;Laerm;58902;51.436;5.980;2023-01-19T00:08:04;35.07;33.36;44.17;;
71020;Laerm;58902;51.436;5.980;2023-01-19T00:08:23;34.11;32.20;35.80;;
71020;Laerm;58902;51.436;5.980;2023-01-19T00:08:34;33.71;32.29;35.40;;
71020;Laerm;58902;51.436;5.980;2023-01-19T00:08:44;35.66;32.63;42.60;;
71020;Laerm;58902;51.436;5.980;2023-01-19T00:08:55;36.37;34.67;37.63;;
71020;Laerm;58902;51.436;5.980;2023-01-19T00:09:05;36.48;34.49;38.22;;
71020;Laerm;58902;51.436;5.980;2023-01-19T00:09:16;35.86;33.15;38.82;;
71020;Laerm;58902;51.436;5.980;2023-01-19T00:09:26;34.84;32.05;36.88;;
71020;Laerm;58902;51.436;5.980;2023-01-19T00:09:42;33.96;32.51;36.58;;
71020;Laerm;58902;51.436;5.980;2023-01-19T00:09:52;34.40;33.05;35.99;;
71020;Laerm;58902;51.436;5.980;2023-01-19T00:10:03;34.32;32.87;35.80;;
71020;Laerm;58902;51.436;5.980;2023-01-19T00:10:13;34.95;33.46;37.52;;
71020;Laerm;58902;51.436;5.980;2023-01-19T00:10:23;34.36;32.47;35.99;;
71020;Laerm;58902;51.436;5.980;2023-01-19T00:10:34;34.18;32.72;35.51;;
71020;Laerm;58902;51.436;5.980;2023-01-19T00:10:45;35.05;32.66;37.96;;
71020;Laerm;58902;51.436;5.980;2023-01-19T00:10:56;35.66;33.00;37.34;;
71020;Laerm;58902;51.436;5.980;2023-01-19T00:11:07;36.71;35.08;38.19;;
71020;Laerm;58902;51.436;5.980;2023-01-19T00:11:17;41.05;33.36;52.18;;
71020;Laerm;58902;51.436;5.980;2023-01-19T00:11:28;34.52;32.43;41.85;;
71020;Laerm;58902;51.436;5.980;2023-01-19T00:11:38;36.42;32.68;42.10;;
71020;Laerm;58902;51.436;5.980;2023-01-19T00:11:48;35.14;33.06;37.60;;
71020;Laerm;58902;51.436;5.980;2023-01-19T00:11:59;41.79;34.24;48.82;;
71020;Laerm;58902;51.436;5.980;2023-01-19T00:12:09;44.79;36.08;54.20;;
71020;Laerm;58902;51.436;5.980;2023-01-19T00:12:19;43.09;35.70;52.04;;
71020;Laerm;58902;51.436;5.980;2023-01-19T00:12:30;37.13;32.39;43.40;;
71020;Laerm;58902;51.436;5.980;2023-01-19T00:12:40;34.10;32.41;35.60;;
71020;Laerm;58902;51.436;5.980;2023-01-19T00:12:50;33.61;31.95;36.93;;
71020;Laerm;58902;51.436;5.980;2023-01-19T00:13:01;34.14;31.81;38.43;;
71020;Laerm;58902;51.436;5.980;2023-01-19T00:13:12;41.53;36.24;47.01;;
71020;Laerm;58902;51.436;5.980;2023-01-19T00:13:22;38.22;32.68;43.45;;
71020;Laerm;58902;51.436;5.980;2023-01-19T00:13:33;33.33;31.73;34.68;;
71020;Laerm;58902;51.436;5.980;2023-01-19T00:13:43;33.82;32.27;35.45;;
71020;Laerm;58902;51.436;5.980;2023-01-19T00:14:00;33.91;32.02;35.47;;
71020;Laerm;58902;51.436;5.980;2023-01-19T00:14:11;33.74;32.16;35.10;;
71020;Laerm;58902;51.436;5.980;2023-01-19T00:14:21;33.22;31.95;34.77;;
71020;Laerm;58902;51.436;5.980;2023-01-19T00:14:31;34.10;32.13;38.02;;
71020;Laerm;58902;51.436;5.980;2023-01-19T00:14:42;33.84;32.30;35.20;;
71020;Laerm;58902;51.436;5.980;2023-01-19T00:14:52;33.93;32.36;35.34;;
71020;Laerm;58902;51.436;5.980;2023-01-19T00:15:03;33.92;32.23;35.79;;
71020;Laerm;58902;51.436;5.980;2023-01-19T00:15:13;34.92;32.60;38.60;;
71020;Laerm;58902;51.436;5.980;2023-01-19T00:15:23;35.23;33.67;36.56;;
71020;Laerm;58902;51.436;5.980;2023-01-19T00:15:34;35.18;33.74;37.84;;
71020;Laerm;58902;51.436;5.980;2023-01-19T00:15:44;35.26;33.13;40.02;;
71020;Laerm;58902;51.436;5.980;2023-01-19T00:15:55;34.41;32.79;35.96;;
71020;Laerm;58902;51.436;5.980;2023-01-19T00:16:06;35.20;33.55;42.40;;
71020;Laerm;58902;51.436;5.980;2023-01-19T00:16:17;35.36;33.75;37.37;;
71020;Laerm;58902;51.436;5.980;2023-01-19T00:16:27;36.17;34.77;37.64;;
71020;Laerm;58902;51.436;5.980;2023-01-19T00:16:38;37.19;35.29;38.88;;
71020;Laerm;58902;51.436;5.980;2023-01-19T00:16:48;36.70;32.99;38.88;;
71020;Laerm;58902;51.436;5.980;2023-01-19T00:16:59;35.43;33.75;37.13;;
71020;Laerm;58902;51.436;5.980;2023-01-19T00:17:10;35.05;33.63;36.65;;
71020;Laerm;58902;51.436;5.980;2023-01-19T00:17:21;34.85;33.30;37.02;;
71020;Laerm;58902;51.436;5.980;2023-01-19T00:17:31;34.64;33.01;36.35;;
71020;Laerm;58902;51.436;5.980;2023-01-19T00:17:41;35.15;33.70;36.69;;
71020;Laerm;58902;51.436;5.980;2023-01-19T00:17:52;35.30;33.47;39.38;;
71020;Laerm;58902;51.436;5.980;2023-01-19T00:18:02;34.68;33.16;37.39;;
71020;Laerm;58902;51.436;5.980;2023-01-19T00:18:13;35.17;33.00;37.73;;
71020;Laerm;58902;51.436;5.980;2023-01-19T00:18:23;37.03;33.52;40.38;;
71020;Laerm;58902;51.436;5.980;2023-01-19T00:18:34;37.96;35.56;44.43;;
71020;Laerm;58902;51.436;5.980;2023-01-19T00:18:45;38.09;36.30;39.49;;
71020;Laerm;58902;51.436;5.980;2023-01-19T00:18:55;36.18;33.88;40.51;;
71020;Laerm;58902;51.436;5.980;2023-01-19T00:19:06;36.09;34.51;38.83;;
71020;Laerm;58902;51.436;5.980;2023-01-19T00:19:16;35.98;32.85;45.52;;
71020;Laerm;58902;51.436;5.980;2023-01-19T00:19:27;34.92;33.07;36.62;;
71020;Laerm;58902;51.436;5.980;2023-01-19T00:19:37;37.36;35.08;39.71;;
71020;Laerm;58902;51.436;5.980;2023-01-19T00:19:48;38.47;34.28;40.77;;
71020;Laerm;58902;51.436;5.980;2023-01-19T00:19:58;36.39;34.80;38.22;;
71020;Laerm;58902;51.436;5.980;2023-01-19T00:20:09;36.43;34.86;37.90;;
71020;Laerm;58902;51.436;5.980;2023-01-19T00:20:19;36.18;34.53;43.18;;
71020;Laerm;58902;51.436;5.980;2023-01-19T00:20:29;35.38;33.46;37.46;;
71020;Laerm;58902;51.436;5.980;2023-01-19T00:20:48;36.90;33.40;39.87;;
71020;Laerm;58902;51.436;5.980;2023-01-19T00:20:58;37.19;34.95;39.31;;
71020;Laerm;58902;51.436;5.980;2023-01-19T00:21:09;36.78;33.31;38.87;;
71020;Laerm;58902;51.436;5.980;2023-01-19T00:21:19;35.56;33.83;39.84;;
71020;Laerm;58902;51.436;5.980;2023-01-19T00:21:30;35.22;32.89;37.00;;
71020;Laerm;58902;51.436;5.980;2023-01-19T00:21:41;35.14;33.15;36.93;;
71020;Laerm;58902;51.436;5.980;2023-01-19T00:21:51;36.98;34.87;38.82;;
71020;Laerm;58902;51.436;5.980;2023-01-19T00:22:01;36.47;34.57;38.14;;
71020;Laerm;58902;51.436;5.980;2023-01-19T00:22:12;37.46;35.32;42.16;;
71020;Laerm;58902;51.436;5.980;2023-01-19T00:22:22;36.56;34.74;38.60;;
71020;Laerm;58902;51.436;5.980;2023-01-19T00:22:32;36.52;34.91;38.79;;
71020;Laerm;58902;51.436;5.980;2023-01-19T00:22:43;36.49;34.50;38.52;;
71020;Laerm;58902;51.436;5.980;2023-01-19T00:22:53;36.60;34.84;37.96;;
71020;Laerm;58902;51.436;5.980;2023-01-19T00:23:03;36.98;35.32;40.33;;
71020;Laerm;58902;51.436;5.980;2023-01-19T00:23:14;36.08;34.21;38.82;;
71020;Laerm;58902;51.436;5.980;2023-01-19T00:23:25;35.71;34.11;37.28;;
71020;Laerm;58902;51.436;5.980;2023-01-19T00:23:35;36.83;34.28;44.48;;
71020;Laerm;58902;51.436;5.980;2023-01-19T00:23:45;36.00;33.84;37.67;;
71020;Laerm;58902;51.436;5.980;2023-01-19T00:23:56;36.20;34.18;42.75;;
71020;Laerm;58902;51.436;5.980;2023-01-19T00:24:06;35.00;32.83;37.49;;
71020;Laerm;58902;51.436;5.980;2023-01-19T00:24:17;33.73;32.22;35.59;;
71020;Laerm;58902;51.436;5.980;2023-01-19T00:24:27;33.16;31.48;38.10;;
71020;Laerm;58902;51.436;5.980;2023-01-19T00:24:37;33.05;31.55;34.59;;
71020;Laerm;58902;51.436;5.980;2023-01-19T00:24:48;32.95;30.80;34.37;;
71020;Laerm;58902;51.436;5.980;2023-01-19T00:24:59;33.22;31.67;35.31;;
71020;Laerm;58902;51.436;5.980;2023-01-19T00:25:09;33.87;32.33;35.45;;
71020;Laerm;58902;51.436;5.980;2023-01-19T00:25:20;34.86;32.62;37.03;;
71020;Laerm;58902;51.436;5.980;2023-01-19T00:25:30;35.14;33.32;37.88;;
71020;Laerm;58902;51.436;5.980;2023-01-19T00:25:41;35.16;33.14;36.80;;
71020;Laerm;58902;51.436;5.980;2023-01-19T00:25:52;35.03;33.34;37.97;;
71020;Laerm;58902;51.436;5.980;2023-01-19T00:26:03;35.61;34.24;37.36;;
71020;Laerm;58902;51.436;5.980;2023-01-19T00:26:14;35.04;33.21;36.99;;
71020;Laerm;58902;51.436;5.980;2023-01-19T00:26:25;34.93;33.09;42.53;;
71020;Laerm;58902;51.436;5.980;2023-01-19T00:26:35;35.08;32.78;44.85;;
71020;Laerm;58902;51.436;5.980;2023-01-19T00:26:49;33.74;31.97;35.69;;
71020;Laerm;58902;51.436;5.980;2023-01-19T00:26:59;33.97;32.68;35.59;;
71020;Laerm;58902;51.436;5.980;2023-01-19T00:27:12;34.85;32.59;36.75;;
71020;Laerm;58902;51.436;5.980;2023-01-19T00:27:22;34.16;32.39;36.41;;
71020;Laerm;58902;51.436;5.980;2023-01-19T00:27:33;34.05;32.44;35.66;;
71020;Laerm;58902;51.436;5.980;2023-01-19T00:27:44;33.94;31.83;37.13;;
71020;Laerm;58902;51.436;5.980;2023-01-19T00:27:58;38.01;31.91;51.07;;
71020;Laerm;58902;51.436;5.980;2023-01-19T00:28:14;50.18;41.68;56.48;;
71020;Laerm;58902;51.436;5.980;2023-01-19T00:28:24;41.14;34.40;50.67;;
71020;Laerm;58902;51.436;5.980;2023-01-19T00:28:35;37.68;34.74;40.33;;
71020;Laerm;58902;51.436;5.980;2023-01-19T00:28:45;38.87;34.84;41.94;;
71020;Laerm;58902;51.436;5.980;2023-01-19T00:28:56;40.51;37.15;44.14;;
71020;Laerm;58902;51.436;5.980;2023-01-19T00:29:06;71.26;39.98;79.43;;
71020;Laerm;58902;51.436;5.980;2023-01-19T00:29:17;75.02;69.53;82.29;;
71020;Laerm;58902;51.436;5.980;2023-01-19T00:29:27;73.29;67.50;91.03;;
71020;Laerm;58902;51.436;5.980;2023-01-19T00:29:39;55.26;39.77;67.73;;
71020;Laerm;58902;51.436;5.980;2023-01-19T00:29:50;39.75;33.19;51.91;;
71020;Laerm;58902;51.436;5.980;2023-01-19T00:30:00;33.73;32.23;35.29;;
71020;Laerm;58902;51.436;5.980;2023-01-19T00:30:11;34.12;32.38;36.17;;
71020;Laerm;58902;51.436;5.980;2023-01-19T00:30:21;33.54;32.08;34.81;;
71020;Laerm;58902;51.436;5.980;2023-01-19T00:30:32;33.02;31.45;39.45;;
71020;Laerm;58902;51.436;5.980;2023-01-19T00:30:42;33.26;31.69;34.78;;
71020;Laerm;58902;51.436;5.980;2023-01-19T00:30:53;32.62;31.31;34.18;;
71020;Laerm;58902;51.436;5.980;2023-01-19T00:31:03;33.17;31.51;35.43;;
71020;Laerm;58902;51.436;5.980;2023-01-19T00:31:13;43.45;32.13;57.46;;
71020;Laerm;58902;51.436;5.980;2023-01-19T00:31:24;34.30;32.85;35.67;;
71020;Laerm;58902;51.436;5.980;2023-01-19T00:31:34;34.32;32.57;36.09;;
71020;Laerm;58902;51.436;5.980;2023-01-19T00:31:45;34.21;32.54;36.32;;
71020;Laerm;58902;51.436;5.980;2023-01-19T00:31:55;34.16;32.32;35.71;;
71020;Laerm;58902;51.436;5.980;2023-01-19T00:32:05;35.86;33.16;39.58;;
71020;Laerm;58902;51.436;5.980;2023-01-19T00:32:16;38.51;37.10;39.78;;
71020;Laerm;58902;51.436;5.980;2023-01-19T00:32:26;38.31;36.75;39.56;;
71020;Laerm;58902;51.436;5.980;2023-01-19T00:32:37;36.10;34.10;38.96;;
71020;Laerm;58902;51.436;5.980;2023-01-19T00:32:47;35.54;33.95;37.51;;
71020;Laerm;58902;51.436;5.980;2023-01-19T00:32:58;34.88;33.10;36.44;;
71020;Laerm;58902;51.436;5.980;2023-01-19T00:33:11;34.05;32.24;36.19;;
71020;Laerm;58902;51.436;5.980;2023-01-19T00:33:25;33.75;32.11;36.16;;
71020;Laerm;58902;51.436;5.980;2023-01-19T00:33:35;33.34;31.53;35.57;;
71020;Laerm;58902;51.436;5.980;2023-01-19T00:33:46;33.22;31.56;34.89;;
71020;Laerm;58902;51.436;5.980;2023-01-19T00:33:58;33.36;32.19;35.03;;
71020;Laerm;58902;51.436;5.980;2023-01-19T00:34:08;34.40;32.83;35.72;;
71020;Laerm;58902;51.436;5.980;2023-01-19T00:34:19;35.22;34.00;36.44;;
71020;Laerm;58902;51.436;5.980;2023-01-19T00:34:29;35.00;33.40;37.39;;
71020;Laerm;58902;51.436;5.980;2023-01-19T00:34:51;33.84;32.28;38.28;;
71020;Laerm;58902;51.436;5.980;2023-01-19T00:35:01;33.83;32.15;36.69;;
71020;Laerm;58902;51.436;5.980;2023-01-19T00:35:12;34.19;32.53;35.57;;
71020;Laerm;58902;51.436;5.980;2023-01-19T00:35:22;33.75;32.38;35.33;;
71020;Laerm;58902;51.436;5.980;2023-01-19T00:35:33;34.70;32.66;38.29;;
71020;Laerm;58902;51.436;5.980;2023-01-19T00:35:44;35.70;32.38;42.53;;
71020;Laerm;58902;51.436;5.980;2023-01-19T00:35:54;37.18;34.39;42.94;;
71020;Laerm;58902;51.436;5.980;2023-01-19T00:36:05;36.58;33.44;45.07;;
71020;Laerm;58902;51.436;5.980;2023-01-19T00:36:16;36.25;32.59;41.86;;
71020;Laerm;58902;51.436;5.980;2023-01-19T00:36:26;36.23;32.80;42.13;;
71020;Laerm;58902;51.436;5.980;2023-01-19T00:36:36;34.72;31.82;41.09;;
71020;Laerm;58902;51.436;5.980;2023-01-19T00:36:47;34.88;31.91;39.47;;
71020;Laerm;58902;51.436;5.980;2023-01-19T00:36:57;33.13;31.23;35.68;;
71020;Laerm;58902;51.436;5.980;2023-01-19T00:37:11;33.49;31.38;36.56;;
71020;Laerm;58902;51.436;5.980;2023-01-19T00:37:21;33.33;31.88;35.20;;
71020;Laerm;58902;51.436;5.980;2023-01-19T00:37:31;33.82;32.12;40.65;;
71020;Laerm;58902;51.436;5.980;2023-01-19T00:37:42;34.12;32.66;39.13;;
71020;Laerm;58902;51.436;5.980;2023-01-19T00:37:55;32.42;30.71;34.78;;
71020;Laerm;58902;51.436;5.980;2023-01-19T00:38:06;31.93;30.11;33.47;;
71020;Laerm;58902;51.436;5.980;2023-01-19T00:38:16;32.72;30.92;35.57;;
71020;Laerm;58902;51.436;5.980;2023-01-19T00:38:26;34.50;32.82;36.22;;
71020;Laerm;58902;51.436;5.980;2023-01-19T00:38:36;34.05;32.56;35.15;;
71020;Laerm;58902;51.436;5.980;2023-01-19T00:38:48;33.91;31.97;35.66;;
71020;Laerm;58902;51.436;5.980;2023-01-19T00:38:58;32.87;31.33;34.31;;
71020;Laerm;58902;51.436;5.980;2023-01-19T00:39:09;32.64;31.00;34.55;;
71020;Laerm;58902;51.436;5.980;2023-01-19T00:39:19;33.61;31.50;37.66;;
71020;Laerm;58902;51.436;5.980;2023-01-19T00:39:29;35.87;34.06;40.28;;
71020;Laerm;58902;51.436;5.980;2023-01-19T00:39:40;35.91;34.61;37.27;;
71020;Laerm;58902;51.436;5.980;2023-01-19T00:39:50;34.27;31.43;38.54;;
71020;Laerm;58902;51.436;5.980;2023-01-19T00:40:00;33.47;31.82;35.46;;
71020;Laerm;58902;51.436;5.980;2023-01-19T00:40:11;33.80;32.25;35.40;;
71020;Laerm;58902;51.436;5.980;2023-01-19T00:40:22;37.06;33.89;40.09;;
71020;Laerm;58902;51.436;5.980;2023-01-19T00:40:33;37.14;35.34;39.43;;
71020;Laerm;58902;51.436;5.980;2023-01-19T00:40:43;38.25;33.94;45.80;;
71020;Laerm;58902;51.436;5.980;2023-01-19T00:40:53;35.87;34.06;37.82;;
71020;Laerm;58902;51.436;5.980;2023-01-19T00:41:04;35.35;33.87;36.90;;
71020;Laerm;58902;51.436;5.980;2023-01-19T00:41:14;34.37;32.50;35.92;;
71020;Laerm;58902;51.436;5.980;2023-01-19T00:41:25;34.53;32.31;36.88;;
71020;Laerm;58902;51.436;5.980;2023-01-19T00:41:54;35.43;31.36;37.92;;
71020;Laerm;58902;51.436;5.980;2023-01-19T00:42:23;33.44;31.28;36.34;;
71020;Laerm;58902;51.436;5.980;2023-01-19T00:42:49;35.00;31.12;38.11;;
71020;Laerm;58902;51.436;5.980;2023-01-19T00:42:59;33.56;31.43;35.71;;
71020;Laerm;58902;51.436;5.980;2023-01-19T00:43:10;34.35;32.82;35.79;;
71020;Laerm;58902;51.436;5.980;2023-01-19T00:43:20;34.48;32.55;36.12;;
71020;Laerm;58902;51.436;5.980;2023-01-19T00:43:30;37.06;33.98;38.91;;
71020;Laerm;58902;51.436;5.980;2023-01-19T00:43:41;37.23;34.78;39.08;;
71020;Laerm;58902;51.436;5.980;2023-01-19T00:43:51;37.04;35.08;41.23;;
71020;Laerm;58902;51.436;5.980;2023-01-19T00:44:01;35.38;33.94;37.00;;
71020;Laerm;58902;51.436;5.980;2023-01-19T00:44:12;35.13;33.47;40.39;;
71020;Laerm;58902;51.436;5.980;2023-01-19T00:44:22;34.87;33.22;36.40;;
71020;Laerm;58902;51.436;5.980;2023-01-19T00:44:32;35.15;33.55;36.80;;
71020;Laerm;58902;51.436;5.980;2023-01-19T00:44:43;34.92;33.50;36.38;;
71020;Laerm;58902;51.436;5.980;2023-01-19T00:44:53;35.13;33.61;36.63;;
71020;Laerm;58902;51.436;5.980;2023-01-19T00:45:05;35.60;33.78;37.56;;
71020;Laerm;58902;51.436;5.980;2023-01-19T00:45:16;34.52;32.56;36.02;;
71020;Laerm;58902;51.436;5.980;2023-01-19T00:45:27;34.23;32.24;35.84;;
71020;Laerm;58902;51.436;5.980;2023-01-19T00:45:38;34.93;33.09;40.24;;
71020;Laerm;58902;51.436;5.980;2023-01-19T00:45:48;34.74;32.76;36.54;;
71020;Laerm;58902;51.436;5.980;2023-01-19T00:45:58;34.22;32.34;36.58;;
71020;Laerm;58902;51.436;5.980;2023-01-19T00:46:09;34.03;31.41;35.67;;
71020;Laerm;58902;51.436;5.980;2023-01-19T00:46:19;33.70;31.93;35.43;;
71020;Laerm;58902;51.436;5.980;2023-01-19T00:46:36;32.80;31.12;34.59;;
71020;Laerm;58902;51.436;5.980;2023-01-19T00:46:46;32.53;31.22;34.70;;
71020;Laerm;58902;51.436;5.980;2023-01-19T00:46:57;33.67;32.28;35.64;;
71020;Laerm;58902;51.436;5.980;2023-01-19T00:47:07;34.20;32.54;39.41;;
71020;Laerm;58902;51.436;5.980;2023-01-19T00:47:18;36.85;33.37;43.04;;
71020;Laerm;58902;51.436;5.980;2023-01-19T00:47:28;41.77;35.16;50.66;;
71020;Laerm;58902;51.436;5.980;2023-01-19T00:47:38;37.85;34.75;47.82;;
71020;Laerm;58902;51.436;5.980;2023-01-19T00:47:49;36.28;34.99;38.25;;
71020;Laerm;58902;51.436;5.980;2023-01-19T00:48:05;37.06;35.68;38.78;;
71020;Laerm;58902;51.436;5.980;2023-01-19T00:48:16;34.89;32.96;37.01;;
71020;Laerm;58902;51.436;5.980;2023-01-19T00:48:26;34.85;33.50;38.34;;
71020;Laerm;58902;51.436;5.980;2023-01-19T00:48:37;34.11;32.11;37.68;;
71020;Laerm;58902;51.436;5.980;2023-01-19T00:48:47;33.78;32.13;35.49;;
71020;Laerm;58902;51.436;5.980;2023-01-19T00:48:57;33.34;31.66;35.17;;
71020;Laerm;58902;51.436;5.980;2023-01-19T00:49:08;33.00;31.63;34.19;;
71020;Laerm;58902;51.436;5.980;2023-01-19T00:49:19;33.10;31.57;34.54;;
71020;Laerm;58902;51.436;5.980;2023-01-19T00:49:29;33.78;31.55;35.95;;
71020;Laerm;58902;51.436;5.980;2023-01-19T00:49:39;34.06;32.71;35.36;;
71020;Laerm;58902;51.436;5.980;2023-01-19T00:49:50;33.77;32.22;35.66;;
71020;Laerm;58902;51.436;5.980;2023-01-19T00:50:00;33.61;32.18;35.05;;
71020;Laerm;58902;51.436;5.980;2023-01-19T00:50:11;38.08;32.49;39.40;;
71020;Laerm;58902;51.436;5.980;2023-01-19T00:50:25;38.55;36.82;39.72;;
71020;Laerm;58902;51.436;5.980;2023-01-19T00:50:36;35.44;32.42;38.13;;
71020;Laerm;58902;51.436;5.980;2023-01-19T00:50:46;34.37;32.58;35.70;;
71020;Laerm;58902;51.436;5.980;2023-01-19T00:50:58;34.25;32.37;36.07;;
71020;Laerm;58902;51.436;5.980;2023-01-19T00:51:09;34.29;32.29;36.59;;
71020;Laerm;58902;51.436;5.980;2023-01-19T00:51:19;34.04;32.62;35.43;;
71020;Laerm;58902;51.436;5.980;2023-01-19T00:51:29;34.31;32.68;35.60;;
71020;Laerm;58902;51.436;5.980;2023-01-19T00:51:40;33.76;31.67;35.86;;
71020;Laerm;58902;51.436;5.980;2023-01-19T00:51:50;33.31;31.84;34.87;;
71020;Laerm;58902;51.436;5.980;2023-01-19T00:52:01;33.37;31.65;35.21;;
71020;Laerm;58902;51.436;5.980;2023-01-19T00:52:11;35.91;32.74;40.58;;
71020;Laerm;58902;51.436;5.980;2023-01-19T00:52:21;34.28;32.05;40.36;;
71020;Laerm;58902;51.436;5.980;2023-01-19T00:52:32;34.29;32.39;37.64;;
71020;Laerm;58902;51.436;5.980;2023-01-19T00:52:42;34.98;32.60;40.69;;
71020;Laerm;58902;51.436;5.980;2023-01-19T00:52:53;36.24;32.75;45.57;;
71020;Laerm;58902;51.436;5.980;2023-01-19T00:53:04;34.81;32.59;37.29;;
71020;Laerm;58902;51.436;5.980;2023-01-19T00:53:15;35.14;33.84;36.38;;
71020;Laerm;58902;51.436;5.980;2023-01-19T00:53:25;34.65;33.08;36.67;;
71020;Laerm;58902;51.436;5.980;2023-01-19T00:53:38;33.94;31.65;35.70;;
71020;Laerm;58902;51.436;5.980;2023-01-19T00:53:48;33.62;32.14;34.86;;
71020;Laerm;58902;51.436;5.980;2023-01-19T00:53:59;33.67;31.77;36.60;;
71020;Laerm;58902;51.436;5.980;2023-01-19T00:54:13;33.70;32.02;37.13;;
71020;Laerm;58902;51.436;5.980;2023-01-19T00:54:24;33.24;31.17;34.77;;
71020;Laerm;58902;51.436;5.980;2023-01-19T00:54:34;33.44;31.83;35.61;;
71020;Laerm;58902;51.436;5.980;2023-01-19T00:54:44;32.71;31.36;34.00;;
71020;Laerm;58902;51.436;5.980;2023-01-19T00:54:55;33.03;31.22;35.08;;
71020;Laerm;58902;51.436;5.980;2023-01-19T00:55:06;34.54;31.60;37.94;;
71020;Laerm;58902;51.436;5.980;2023-01-19T00:55:17;36.02;34.18;37.55;;
71020;Laerm;58902;51.436;5.980;2023-01-19T00:55:28;35.83;31.74;39.49;;
71020;Laerm;58902;51.436;5.980;2023-01-19T00:55:38;34.29;32.45;38.41;;
71020;Laerm;58902;51.436;5.980;2023-01-19T00:55:49;33.88;32.32;35.86;;
71020;Laerm;58902;51.436;5.980;2023-01-19T00:55:59;33.25;31.51;34.62;;
71020;Laerm;58902;51.436;5.980;2023-01-19T00:56:09;35.89;32.34;37.88;;
71020;Laerm;58902;51.436;5.980;2023-01-19T00:56:20;36.04;34.29;37.61;;
71020;Laerm;58902;51.436;5.980;2023-01-19T00:56:30;36.21;32.93;37.27;;
71020;Laerm;58902;51.436;5.980;2023-01-19T00:56:41;33.73;32.20;35.66;;
71020;Laerm;58902;51.436;5.980;2023-01-19T00:56:51;34.03;32.49;35.65;;
71020;Laerm;58902;51.436;5.980;2023-01-19T00:57:01;32.44;30.77;34.61;;
71020;Laerm;58902;51.436;5.980;2023-01-19T00:57:13;31.87;30.66;33.61;;
71020;Laerm;58902;51.436;5.980;2023-01-19T00:57:23;32.05;30.53;37.05;;
71020;Laerm;58902;51.436;5.980;2023-01-19T00:57:36;32.79;30.84;34.94;;
71020;Laerm;58902;51.436;5.980;2023-01-19T00:57:46;32.89;31.18;37.27;;
71020;Laerm;58902;51.436;5.980;2023-01-19T00:57:57;32.06;30.51;33.79;;
71020;Laerm;58902;51.436;5.980;2023-01-19T00:58:08;32.05;30.65;33.30;;
71020;Laerm;58902;51.436;5.980;2023-01-19T00:58:18;32.20;30.69;33.78;;
71020;Laerm;58902;51.436;5.980;2023-01-19T00:58:28;32.50;30.79;34.18;;
71020;Laerm;58902;51.436;5.980;2023-01-19T00:58:39;32.89;31.40;34.74;;
71020;Laerm;58902;51.436;5.980;2023-01-19T00:58:49;32.52;31.06;34.11;;
71020;Laerm;58902;51.436;5.980;2023-01-19T00:59:00;31.87;30.51;33.54;;
71020;Laerm;58902;51.436;5.980;2023-01-19T00:59:10;32.16;30.57;34.21;;
71020;Laerm;58902;51.436;5.980;2023-01-19T00:59:20;32.56;30.92;36.05;;
71020;Laerm;58902;51.436;5.980;2023-01-19T00:59:31;32.25;30.72;33.38;;
71020;Laerm;58902;51.436;5.980;2023-01-19T00:59:41;32.70;31.43;33.98;;
71020;Laerm;58902;51.436;5.980;2023-01-19T00:59:52;33.27;31.87;35.71;;
71020;Laerm;58902;51.436;5.980;2023-01-19T01:00:03;32.51;30.77;34.21;;
71020;Laerm;58902;51.436;5.980;2023-01-19T01:00:16;42.43;31.07;56.71;;
71020;Laerm;58902;51.436;5.980;2023-01-19T01:00:26;32.54;30.82;34.56;;
71020;Laerm;58902;51.436;5.980;2023-01-19T01:00:37;32.69;30.95;34.31;;
71020;Laerm;58902;51.436;5.980;2023-01-19T01:00:47;33.62;32.07;35.08;;
71020;Laerm;58902;51.436;5.980;2023-01-19T01:00:57;33.56;31.92;35.16;;
71020;Laerm;58902;51.436;5.980;2023-01-19T01:01:12;33.25;30.72;35.29;;
71020;Laerm;58902;51.436;5.980;2023-01-19T01:01:23;32.99;31.00;34.72;;
71020;Laerm;58902;51.436;5.980;2023-01-19T01:01:33;33.15;31.29;34.58;;